EmailTwitter


Observations de surface / France / LFBO (07630)

Régions: Québec | Canada | États-Unis | Europe | France | UK | Ailleurs
Station
Affichage
Infos & localisation pour LFBO (07630) | Aide pour décoder les METARs

Observations prises le 2018-08-15 à 22H00 UTC à TOULOUSE/BLAGNAC, FR (LFBO)

Température: 21.0 Celsius

Point de rosée: 15.0 Celsius

Humidité relative: 69%

Indice Humidex: 25.

Vents: Variable à 6 km/h ou 3 noeuds.

Pression au niveau moyen de la mer: 101.70 kilopascals.

Observation METAR:

LFBO 152200Z AUTO VRB03KT CAVOK 21/15 Q1017 NOSIG=